METAR Data
IDs: Format: Raw Decoded Include TAF

Data at: 1740 UTC 21 Nov 2018

METAR for:KVCT (Victoria Rgnl, TX, US)
Text:KVCT 211651Z 04010KT 10SM OVC065 12/07 A3034 RMK AO2 SLP273 T01170072
Temperature: 11.7°C ( 53°F)
Dewpoint: 7.2°C ( 45°F) [RH = 74%]
Pressure (altimeter):30.34 inches Hg (1027.5 mb) [Sea level pressure: 1027.3 mb]
Winds:from the NE (40 degrees) at 12 MPH (10 knots; 5.1 m/s)
Visibility:10 or more sm (16+ km)
Ceiling:6500 feet AGL
Clouds: overcast cloud deck at 6500 feet AGL